PWSweather.com
Personal Weather Stations
Station Observations
DW1039
Liberty & Fairfield Townships, Hamilton, OH 45011

Liberty & Fairfield TownshipsHamilton, OH 45011

Lat: 39.3933, Lon: -84.477

Elevation: 780

Station Type: Davis Vantage Pro2 (Daytime Fan Aspirated)

http://www.lfweathercenter.com/

High Low Average
Temperature 34.4°F1.3°F 27.4°F-2.6°F 30.1°F-1.1°F
Dew Point 26.6°F-3.0°F 18.8°F-7.3°F 23.9°F-4.5°F
Winds 12.0 mph W19.3 mph W Calm Calm 4.0 mph 6.4 mph
Wind Gusts 21.0 mph33.8 mph 1.0 mph1.6 mph 9.5 mph15.3 mph
Humidity 84% 69% 78%
Pressure 30.45 in1031.20 in 30.12 in1020.00 in -
Precipitation 0.00 in0.00 in - -
Hour Temp Dew Point Humidity Winds Wind Gusts Pressure Precip Precip Rate Daily Precip Total
12:00 AM 28.1°F-2.2°C 23.6°F-4.7°C 83% Calm Calm 2.0 mph3.2 kmh 30.12 in1020.0 mb 0.00 in0.0 mm 0.00 in/hr0.0 mm/hr 0.00 in0.0 mm
12:10 AM 28.1°F-2.2°C 23.6°F-4.7°C 83% 1.0 mph NW1.6 kmh NW 3.0 mph4.8 kmh 30.12 in1020.0 mb 0.00 in0.0 mm 0.00 in/hr0.0 mm/hr 0.00 in0.0 mm
12:20 AM 28.1°F-2.2°C 23.6°F-4.7°C 83% Calm Calm 3.0 mph4.8 kmh 30.12 in1020.0 mb 0.00 in0.0 mm 0.00 in/hr0.0 mm/hr 0.00 in0.0 mm
12:30 AM 28.0°F-2.2°C 23.5°F-4.7°C 83% 3.0 mph NW4.8 kmh NW 3.0 mph4.8 kmh 30.12 in1020.0 mb 0.00 in0.0 mm 0.00 in/hr0.0 mm/hr 0.00 in0.0 mm
12:40 AM 27.9°F-2.3°C 23.4°F-4.8°C 83% 2.0 mph NW3.2 kmh NW 2.0 mph3.2 kmh 30.12 in1020.0 mb 0.00 in0.0 mm 0.00 in/hr0.0 mm/hr 0.00 in0.0 mm
12:50 AM 27.9°F-2.3°C 23.4°F-4.8°C 83% Calm Calm 3.0 mph4.8 kmh 30.12 in1020.0 mb 0.00 in0.0 mm 0.00 in/hr0.0 mm/hr 0.00 in0.0 mm
01:00 AM 27.7°F-2.4°C 23.2°F-4.9°C 83% 1.0 mph NW1.6 kmh NW 3.0 mph4.8 kmh 30.13 in1020.3 mb 0.00 in0.0 mm 0.00 in/hr0.0 mm/hr 0.00 in0.0 mm
01:10 AM 27.6°F-2.4°C 23.1°F-4.9°C 83% 1.0 mph NW1.6 kmh NW 4.0 mph6.4 kmh 30.13 in1020.3 mb 0.00 in0.0 mm 0.00 in/hr0.0 mm/hr 0.00 in0.0 mm
01:20 AM 27.7°F-2.4°C 23.2°F-4.9°C 83% 2.0 mph NW3.2 kmh NW 4.0 mph6.4 kmh 30.12 in1020.0 mb 0.00 in0.0 mm 0.00 in/hr0.0 mm/hr 0.00 in0.0 mm
01:30 AM 27.6°F-2.4°C 23.1°F-4.9°C 83% Calm Calm 4.0 mph6.4 kmh 30.12 in1020.0 mb 0.00 in0.0 mm 0.00 in/hr0.0 mm/hr 0.00 in0.0 mm
01:40 AM 27.5°F-2.5°C 23.3°F-4.8°C 84% Calm Calm 3.0 mph4.8 kmh 30.12 in1020.0 mb 0.00 in0.0 mm 0.00 in/hr0.0 mm/hr 0.00 in0.0 mm
01:50 AM 27.5°F-2.5°C 23.3°F-4.8°C 84% 2.0 mph NW3.2 kmh NW 4.0 mph6.4 kmh 30.12 in1020.0 mb 0.00 in0.0 mm 0.00 in/hr0.0 mm/hr 0.00 in0.0 mm
02:00 AM 27.4°F-2.6°C 22.9°F-5.1°C 83% 3.0 mph NW4.8 kmh NW 4.0 mph6.4 kmh 30.13 in1020.3 mb 0.00 in0.0 mm 0.00 in/hr0.0 mm/hr 0.00 in0.0 mm
02:10 AM 27.4°F-2.6°C 22.9°F-5.1°C 83% 3.0 mph NW4.8 kmh NW 3.0 mph4.8 kmh 30.13 in1020.3 mb 0.00 in0.0 mm 0.00 in/hr0.0 mm/hr 0.00 in0.0 mm
02:20 AM 27.5°F-2.5°C 23.0°F-5.0°C 83% Calm Calm 4.0 mph6.4 kmh 30.14 in1020.7 mb 0.00 in0.0 mm 0.00 in/hr0.0 mm/hr 0.00 in0.0 mm
02:30 AM 27.7°F-2.4°C 23.2°F-4.9°C 83% Calm Calm 4.0 mph6.4 kmh 30.14 in1020.7 mb 0.00 in0.0 mm 0.00 in/hr0.0 mm/hr 0.00 in0.0 mm
02:40 AM 27.9°F-2.3°C 23.4°F-4.8°C 83% 3.0 mph NW4.8 kmh NW 6.0 mph9.7 kmh 30.14 in1020.7 mb 0.00 in0.0 mm 0.00 in/hr0.0 mm/hr 0.00 in0.0 mm
02:50 AM 28.1°F-2.2°C 23.6°F-4.7°C 83% 2.0 mph NW3.2 kmh NW 4.0 mph6.4 kmh 30.15 in1021.0 mb 0.00 in0.0 mm 0.00 in/hr0.0 mm/hr 0.00 in0.0 mm
03:00 AM 28.1°F-2.2°C 23.6°F-4.7°C 83% 3.0 mph NW4.8 kmh NW 5.0 mph8.0 kmh 30.15 in1021.0 mb 0.00 in0.0 mm 0.00 in/hr0.0 mm/hr 0.00 in0.0 mm
03:10 AM 28.2°F-2.1°C 23.7°F-4.6°C 83% 3.0 mph NW4.8 kmh NW 6.0 mph9.7 kmh 30.15 in1021.0 mb 0.00 in0.0 mm 0.00 in/hr0.0 mm/hr 0.00 in0.0 mm
03:20 AM 28.2°F-2.1°C 24.0°F-4.4°C 84% 5.0 mph NW8.0 kmh NW 5.0 mph8.0 kmh 30.15 in1021.0 mb 0.00 in0.0 mm 0.00 in/hr0.0 mm/hr 0.00 in0.0 mm
03:30 AM 28.2°F-2.1°C 24.0°F-4.4°C 84% 4.0 mph NW6.4 kmh NW 6.0 mph9.7 kmh 30.15 in1021.0 mb 0.00 in0.0 mm 0.00 in/hr0.0 mm/hr 0.00 in0.0 mm
03:40 AM 28.3°F-2.1°C 24.1°F-4.4°C 84% 5.0 mph NW8.0 kmh NW 5.0 mph8.0 kmh 30.16 in1021.3 mb 0.00 in0.0 mm 0.00 in/hr0.0 mm/hr 0.00 in0.0 mm
03:50 AM 28.3°F-2.1°C 24.1°F-4.4°C 84% Calm Calm 4.0 mph6.4 kmh 30.16 in1021.3 mb 0.00 in0.0 mm 0.00 in/hr0.0 mm/hr 0.00 in0.0 mm
04:00 AM 28.3°F-2.1°C 24.1°F-4.4°C 84% 4.0 mph N6.4 kmh N 4.0 mph6.4 kmh 30.16 in1021.3 mb 0.00 in0.0 mm 0.00 in/hr0.0 mm/hr 0.00 in0.0 mm
04:10 AM 28.4°F-2.0°C 24.2°F-4.3°C 84% Calm Calm 6.0 mph9.7 kmh 30.16 in1021.3 mb 0.00 in0.0 mm 0.00 in/hr0.0 mm/hr 0.00 in0.0 mm
04:20 AM 28.5°F-1.9°C 24.3°F-4.3°C 84% Calm Calm 1.0 mph1.6 kmh 30.17 in1021.7 mb 0.00 in0.0 mm 0.00 in/hr0.0 mm/hr 0.00 in0.0 mm
04:30 AM 28.5°F-1.9°C 24.3°F-4.3°C 84% 2.0 mph NW3.2 kmh NW 4.0 mph6.4 kmh 30.17 in1021.7 mb 0.00 in0.0 mm 0.00 in/hr0.0 mm/hr 0.00 in0.0 mm
04:40 AM 28.6°F-1.9°C 24.4°F-4.2°C 84% Calm Calm 4.0 mph6.4 kmh 30.18 in1022.0 mb 0.00 in0.0 mm 0.00 in/hr0.0 mm/hr 0.00 in0.0 mm
04:50 AM 28.7°F-1.8°C 24.5°F-4.2°C 84% Calm Calm 5.0 mph8.0 kmh 30.18 in1022.0 mb 0.00 in0.0 mm 0.00 in/hr0.0 mm/hr 0.00 in0.0 mm
05:00 AM 28.8°F-1.8°C 24.6°F-4.1°C 84% 1.0 mph NW1.6 kmh NW 4.0 mph6.4 kmh 30.18 in1022.0 mb 0.00 in0.0 mm 0.00 in/hr0.0 mm/hr 0.00 in0.0 mm
05:10 AM 28.9°F-1.7°C 24.7°F-4.1°C 84% 3.0 mph NW4.8 kmh NW 5.0 mph8.0 kmh 30.19 in1022.4 mb 0.00 in0.0 mm 0.00 in/hr0.0 mm/hr 0.00 in0.0 mm
05:20 AM 29.0°F-1.7°C 24.8°F-4.0°C 84% 3.0 mph WNW4.8 kmh WNW 7.0 mph11.3 kmh 30.19 in1022.4 mb 0.00 in0.0 mm 0.00 in/hr0.0 mm/hr 0.00 in0.0 mm
05:30 AM 29.0°F-1.7°C 24.5°F-4.2°C 83% 4.0 mph NW6.4 kmh NW 10.0 mph16.1 kmh 30.19 in1022.4 mb 0.00 in0.0 mm 0.00 in/hr0.0 mm/hr 0.00 in0.0 mm
05:40 AM 29.1°F-1.6°C 24.6°F-4.1°C 83% 2.0 mph NW3.2 kmh NW 4.0 mph6.4 kmh 30.20 in1022.7 mb 0.00 in0.0 mm 0.00 in/hr0.0 mm/hr 0.00 in0.0 mm
05:50 AM 29.1°F-1.6°C 24.6°F-4.1°C 83% 3.0 mph WNW4.8 kmh WNW 6.0 mph9.7 kmh 30.20 in1022.7 mb 0.00 in0.0 mm 0.00 in/hr0.0 mm/hr 0.00 in0.0 mm
06:00 AM 29.0°F-1.7°C 24.5°F-4.2°C 83% 1.0 mph NW1.6 kmh NW 3.0 mph4.8 kmh 30.20 in1022.7 mb 0.00 in0.0 mm 0.00 in/hr0.0 mm/hr 0.00 in0.0 mm
06:10 AM 28.9°F-1.7°C 24.4°F-4.2°C 83% 1.0 mph NW1.6 kmh NW 9.0 mph14.5 kmh 30.21 in1023.0 mb 0.00 in0.0 mm 0.00 in/hr0.0 mm/hr 0.00 in0.0 mm
06:20 AM 28.7°F-1.8°C 24.2°F-4.3°C 83% 2.0 mph NW3.2 kmh NW 6.0 mph9.7 kmh 30.21 in1023.0 mb 0.00 in0.0 mm 0.00 in/hr0.0 mm/hr 0.00 in0.0 mm
06:30 AM 28.8°F-1.8°C 24.3°F-4.3°C 83% 3.0 mph NW4.8 kmh NW 6.0 mph9.7 kmh 30.22 in1023.4 mb 0.00 in0.0 mm 0.00 in/hr0.0 mm/hr 0.00 in0.0 mm
06:40 AM 29.0°F-1.7°C 24.5°F-4.2°C 83% 4.0 mph NW6.4 kmh NW 9.0 mph14.5 kmh 30.22 in1023.4 mb 0.00 in0.0 mm 0.00 in/hr0.0 mm/hr 0.00 in0.0 mm
06:50 AM 29.1°F-1.6°C 24.6°F-4.1°C 83% 4.0 mph NW6.4 kmh NW 6.0 mph9.7 kmh 30.23 in1023.7 mb 0.00 in0.0 mm 0.00 in/hr0.0 mm/hr 0.00 in0.0 mm
07:00 AM 29.2°F-1.6°C 24.7°F-4.1°C 83% 1.0 mph NW1.6 kmh NW 10.0 mph16.1 kmh 30.24 in1024.0 mb 0.00 in0.0 mm 0.00 in/hr0.0 mm/hr 0.00 in0.0 mm
07:10 AM 29.2°F-1.6°C 24.7°F-4.1°C 83% 5.0 mph WNW8.0 kmh WNW 10.0 mph16.1 kmh 30.24 in1024.0 mb 0.00 in0.0 mm 0.00 in/hr0.0 mm/hr 0.00 in0.0 mm
07:20 AM 29.4°F-1.4°C 24.9°F-3.9°C 83% Calm Calm 6.0 mph9.7 kmh 30.25 in1024.4 mb 0.00 in0.0 mm 0.00 in/hr0.0 mm/hr 0.00 in0.0 mm
07:30 AM 29.4°F-1.4°C 24.9°F-3.9°C 83% Calm Calm 4.0 mph6.4 kmh 30.25 in1024.4 mb 0.00 in0.0 mm 0.00 in/hr0.0 mm/hr 0.00 in0.0 mm
07:40 AM 29.4°F-1.4°C 24.9°F-3.9°C 83% 3.0 mph WNW4.8 kmh WNW 7.0 mph11.3 kmh 30.25 in1024.4 mb 0.00 in0.0 mm 0.00 in/hr0.0 mm/hr 0.00 in0.0 mm
07:50 AM 29.6°F-1.3°C 25.1°F-3.8°C 83% 3.0 mph WNW4.8 kmh WNW 9.0 mph14.5 kmh 30.26 in1024.7 mb 0.00 in0.0 mm 0.00 in/hr0.0 mm/hr 0.00 in0.0 mm
08:00 AM 29.6°F-1.3°C 25.1°F-3.8°C 83% Calm Calm 7.0 mph11.3 kmh 30.26 in1024.7 mb 0.00 in0.0 mm 0.00 in/hr0.0 mm/hr 0.00 in0.0 mm
08:10 AM 29.6°F-1.3°C 24.8°F-4.0°C 82% 2.0 mph WNW3.2 kmh WNW 7.0 mph11.3 kmh 30.27 in1025.1 mb 0.00 in0.0 mm 0.00 in/hr0.0 mm/hr 0.00 in0.0 mm
08:20 AM 29.7°F-1.3°C 24.9°F-3.9°C 82% 1.0 mph WNW1.6 kmh WNW 9.0 mph14.5 kmh 30.28 in1025.4 mb 0.00 in0.0 mm 0.00 in/hr0.0 mm/hr 0.00 in0.0 mm
08:30 AM 29.7°F-1.3°C 24.9°F-3.9°C 82% Calm Calm 7.0 mph11.3 kmh 30.28 in1025.4 mb 0.00 in0.0 mm 0.00 in/hr0.0 mm/hr 0.00 in0.0 mm
08:40 AM 29.8°F-1.2°C 25.0°F-3.9°C 82% 2.0 mph WNW3.2 kmh WNW 5.0 mph8.0 kmh 30.29 in1025.7 mb 0.00 in0.0 mm 0.00 in/hr0.0 mm/hr 0.00 in0.0 mm
08:50 AM 29.9°F-1.2°C 25.1°F-3.8°C 82% Calm Calm 4.0 mph6.4 kmh 30.29 in1025.7 mb 0.00 in0.0 mm 0.00 in/hr0.0 mm/hr 0.00 in0.0 mm
09:00 AM 29.9°F-1.2°C 24.8°F-4.0°C 81% Calm Calm 7.0 mph11.3 kmh 30.29 in1025.7 mb 0.00 in0.0 mm 0.00 in/hr0.0 mm/hr 0.00 in0.0 mm
09:10 AM 30.1°F-1.1°C 25.0°F-3.9°C 81% 6.0 mph WNW9.7 kmh WNW 9.0 mph14.5 kmh 30.30 in1026.1 mb 0.00 in0.0 mm 0.00 in/hr0.0 mm/hr 0.00 in0.0 mm
09:20 AM 30.2°F-1.0°C 24.8°F-4.0°C 80% 1.0 mph W1.6 kmh W 10.0 mph16.1 kmh 30.30 in1026.1 mb 0.00 in0.0 mm 0.00 in/hr0.0 mm/hr 0.00 in0.0 mm
09:30 AM 30.5°F-0.8°C 25.1°F-3.8°C 80% 3.0 mph NW4.8 kmh NW 10.0 mph16.1 kmh 30.30 in1026.1 mb 0.00 in0.0 mm 0.00 in/hr0.0 mm/hr 0.00 in0.0 mm
09:40 AM 30.9°F-0.6°C 25.2°F-3.8°C 79% 2.0 mph W3.2 kmh W 13.0 mph20.9 kmh 30.30 in1026.1 mb 0.00 in0.0 mm 0.00 in/hr0.0 mm/hr 0.00 in0.0 mm
09:50 AM 31.1°F-0.5°C 25.1°F-3.8°C 78% 5.0 mph WNW8.0 kmh WNW 12.0 mph19.3 kmh 30.31 in1026.4 mb 0.00 in0.0 mm 0.00 in/hr0.0 mm/hr 0.00 in0.0 mm
10:01 AM 31.3°F-0.4°C 25.3°F-3.7°C 78% 4.0 mph W6.4 kmh W 12.0 mph19.3 kmh 30.31 in1026.4 mb 0.00 in0.0 mm 0.00 in/hr0.0 mm/hr 0.00 in0.0 mm
10:10 AM 32.0°F0.0°C 25.6°F-3.6°C 77% Calm Calm 9.0 mph14.5 kmh 30.31 in1026.4 mb 0.00 in0.0 mm 0.00 in/hr0.0 mm/hr 0.00 in0.0 mm
10:20 AM 32.2°F0.1°C 25.5°F-3.6°C 76% 4.0 mph W6.4 kmh W 9.0 mph14.5 kmh 30.32 in1026.8 mb 0.00 in0.0 mm 0.00 in/hr0.0 mm/hr 0.00 in0.0 mm
10:30 AM 32.4°F0.2°C 25.1°F-3.8°C 74% 3.0 mph NW4.8 kmh NW 9.0 mph14.5 kmh 30.32 in1026.8 mb 0.00 in0.0 mm 0.00 in/hr0.0 mm/hr 0.00 in0.0 mm
10:40 AM 32.8°F0.4°C 25.4°F-3.7°C 74% 4.0 mph NW6.4 kmh NW 13.0 mph20.9 kmh 30.32 in1026.8 mb 0.00 in0.0 mm 0.00 in/hr0.0 mm/hr 0.00 in0.0 mm
10:50 AM 31.8°F-0.1°C 24.5°F-4.2°C 74% 5.0 mph WNW8.0 kmh WNW 11.0 mph17.7 kmh 30.32 in1026.8 mb 0.00 in0.0 mm 0.00 in/hr0.0 mm/hr 0.00 in0.0 mm
11:00 AM 32.6°F0.3°C 25.6°F-3.6°C 75% 8.0 mph W12.9 kmh W 14.0 mph22.5 kmh 30.33 in1027.1 mb 0.00 in0.0 mm 0.00 in/hr0.0 mm/hr 0.00 in0.0 mm
11:10 AM 33.6°F0.9°C 25.6°F-3.6°C 72% 3.0 mph NW4.8 kmh NW 9.0 mph14.5 kmh 30.33 in1027.1 mb 0.00 in0.0 mm 0.00 in/hr0.0 mm/hr 0.00 in0.0 mm
11:20 AM 34.3°F1.3°C 26.6°F-3.0°C 73% 4.0 mph W6.4 kmh W 7.0 mph11.3 kmh 30.34 in1027.4 mb 0.00 in0.0 mm 0.00 in/hr0.0 mm/hr 0.00 in0.0 mm
11:30 AM 34.1°F1.2°C 25.4°F-3.7°C 70% Calm Calm 7.0 mph11.3 kmh 30.34 in1027.4 mb 0.00 in0.0 mm 0.00 in/hr0.0 mm/hr 0.00 in0.0 mm
11:40 AM 33.3°F0.7°C 24.6°F-4.1°C 70% 9.0 mph W14.5 kmh W 11.0 mph17.7 kmh 30.34 in1027.4 mb 0.00 in0.0 mm 0.00 in/hr0.0 mm/hr 0.00 in0.0 mm
11:50 AM 33.2°F0.7°C 25.2°F-3.8°C 72% 5.0 mph W8.0 kmh W 13.0 mph20.9 kmh 30.33 in1027.1 mb 0.00 in0.0 mm 0.00 in/hr0.0 mm/hr 0.00 in0.0 mm
12:00 PM 33.5°F0.8°C 24.8°F-4.0°C 70% 5.0 mph WNW8.0 kmh WNW 11.0 mph17.7 kmh 30.33 in1027.1 mb 0.00 in0.0 mm 0.00 in/hr0.0 mm/hr 0.00 in0.0 mm
12:10 PM 33.3°F0.7°C 24.2°F-4.3°C 69% 2.0 mph NW3.2 kmh NW 11.0 mph17.7 kmh 30.33 in1027.1 mb 0.00 in0.0 mm 0.00 in/hr0.0 mm/hr 0.00 in0.0 mm
12:20 PM 33.3°F0.7°C 24.9°F-3.9°C 71% 1.0 mph W1.6 kmh W 14.0 mph22.5 kmh 30.33 in1027.1 mb 0.00 in0.0 mm 0.00 in/hr0.0 mm/hr 0.00 in0.0 mm
12:30 PM 33.4°F0.8°C 24.7°F-4.1°C 70% 6.0 mph W9.7 kmh W 13.0 mph20.9 kmh 30.33 in1027.1 mb 0.00 in0.0 mm 0.00 in/hr0.0 mm/hr 0.00 in0.0 mm
12:40 PM 33.8°F1.0°C 25.4°F-3.7°C 71% 12.0 mph W19.3 kmh W 14.0 mph22.5 kmh 30.33 in1027.1 mb 0.00 in0.0 mm 0.00 in/hr0.0 mm/hr 0.00 in0.0 mm
12:50 PM 34.4°F1.3°C 25.6°F-3.6°C 70% 9.0 mph WSW14.5 kmh WSW 14.0 mph22.5 kmh 30.33 in1027.1 mb 0.00 in0.0 mm 0.00 in/hr0.0 mm/hr 0.00 in0.0 mm
01:00 PM 34.1°F1.2°C 25.7°F-3.5°C 71% 3.0 mph W4.8 kmh W 10.0 mph16.1 kmh 30.33 in1027.1 mb 0.00 in0.0 mm 0.00 in/hr0.0 mm/hr 0.00 in0.0 mm
01:10 PM 33.7°F0.9°C 25.0°F-3.9°C 70% 8.0 mph W12.9 kmh W 20.0 mph32.2 kmh 30.33 in1027.1 mb 0.00 in0.0 mm 0.00 in/hr0.0 mm/hr 0.00 in0.0 mm
01:20 PM 33.9°F1.1°C 25.8°F-3.4°C 72% 5.0 mph W8.0 kmh W 15.0 mph24.1 kmh 30.33 in1027.1 mb 0.00 in0.0 mm 0.00 in/hr0.0 mm/hr 0.00 in0.0 mm
01:30 PM 33.7°F0.9°C 25.7°F-3.5°C 72% 10.0 mph W16.1 kmh W 21.0 mph33.8 kmh 30.33 in1027.1 mb 0.00 in0.0 mm 0.00 in/hr0.0 mm/hr 0.00 in0.0 mm
01:40 PM 33.2°F0.7°C 25.5°F-3.6°C 73% 3.0 mph WNW4.8 kmh WNW 10.0 mph16.1 kmh 30.33 in1027.1 mb 0.00 in0.0 mm 0.00 in/hr0.0 mm/hr 0.00 in0.0 mm
01:50 PM 33.0°F0.6°C 25.6°F-3.6°C 74% 9.0 mph WSW14.5 kmh WSW 14.0 mph22.5 kmh 30.33 in1027.1 mb 0.00 in0.0 mm 0.00 in/hr0.0 mm/hr 0.00 in0.0 mm
02:00 PM 32.6°F0.3°C 25.9°F-3.4°C 76% 6.0 mph NW9.7 kmh NW 15.0 mph24.1 kmh 30.34 in1027.4 mb 0.00 in0.0 mm 0.00 in/hr0.0 mm/hr 0.00 in0.0 mm
02:10 PM 32.3°F0.2°C 25.9°F-3.4°C 77% 4.0 mph W6.4 kmh W 13.0 mph20.9 kmh 30.34 in1027.4 mb 0.00 in0.0 mm 0.00 in/hr0.0 mm/hr 0.00 in0.0 mm
02:20 PM 32.0°F0.0°C 25.9°F-3.4°C 78% 6.0 mph WNW9.7 kmh WNW 16.0 mph25.7 kmh 30.34 in1027.4 mb 0.00 in0.0 mm 0.00 in/hr0.0 mm/hr 0.00 in0.0 mm
02:30 PM 32.5°F0.3°C 26.4°F-3.1°C 78% 11.0 mph W17.7 kmh W 13.0 mph20.9 kmh 30.34 in1027.4 mb 0.00 in0.0 mm 0.00 in/hr0.0 mm/hr 0.00 in0.0 mm
02:40 PM 32.5°F0.3°C 26.1°F-3.3°C 77% 12.0 mph W19.3 kmh W 15.0 mph24.1 kmh 30.35 in1027.8 mb 0.00 in0.0 mm 0.00 in/hr0.0 mm/hr 0.00 in0.0 mm
02:50 PM 32.5°F0.3°C 26.1°F-3.3°C 77% 11.0 mph WNW17.7 kmh WNW 13.0 mph20.9 kmh 30.35 in1027.8 mb 0.00 in0.0 mm 0.00 in/hr0.0 mm/hr 0.00 in0.0 mm
03:00 PM 32.5°F0.3°C 26.4°F-3.1°C 78% 5.0 mph WSW8.0 kmh WSW 10.0 mph16.1 kmh 30.34 in1027.4 mb 0.00 in0.0 mm 0.00 in/hr0.0 mm/hr 0.00 in0.0 mm
03:10 PM 32.4°F0.2°C 26.3°F-3.2°C 78% 3.0 mph WNW4.8 kmh WNW 11.0 mph17.7 kmh 30.34 in1027.4 mb 0.00 in0.0 mm 0.00 in/hr0.0 mm/hr 0.00 in0.0 mm
03:20 PM 32.6°F0.3°C 26.5°F-3.1°C 78% 8.0 mph W12.9 kmh W 11.0 mph17.7 kmh 30.34 in1027.4 mb 0.00 in0.0 mm 0.00 in/hr0.0 mm/hr 0.00 in0.0 mm
03:30 PM 32.6°F0.3°C 26.5°F-3.1°C 78% 7.0 mph W11.3 kmh W 11.0 mph17.7 kmh 30.35 in1027.8 mb 0.00 in0.0 mm 0.00 in/hr0.0 mm/hr 0.00 in0.0 mm
03:40 PM 32.5°F0.3°C 26.4°F-3.1°C 78% 6.0 mph WNW9.7 kmh WNW 15.0 mph24.1 kmh 30.35 in1027.8 mb 0.00 in0.0 mm 0.00 in/hr0.0 mm/hr 0.00 in0.0 mm
03:50 PM 32.5°F0.3°C 26.4°F-3.1°C 78% 4.0 mph NW6.4 kmh NW 10.0 mph16.1 kmh 30.36 in1028.1 mb 0.00 in0.0 mm 0.00 in/hr0.0 mm/hr 0.00 in0.0 mm
04:00 PM 32.5°F0.3°C 26.1°F-3.3°C 77% 9.0 mph W14.5 kmh W 12.0 mph19.3 kmh 30.36 in1028.1 mb 0.00 in0.0 mm 0.00 in/hr0.0 mm/hr 0.00 in0.0 mm
04:10 PM 32.4°F0.2°C 26.0°F-3.3°C 77% 5.0 mph W8.0 kmh W 14.0 mph22.5 kmh 30.36 in1028.1 mb 0.00 in0.0 mm 0.00 in/hr0.0 mm/hr 0.00 in0.0 mm
04:20 PM 32.2°F0.1°C 25.5°F-3.6°C 76% 7.0 mph WSW11.3 kmh WSW 13.0 mph20.9 kmh 30.36 in1028.1 mb 0.00 in0.0 mm 0.00 in/hr0.0 mm/hr 0.00 in0.0 mm
04:30 PM 32.2°F0.1°C 25.5°F-3.6°C 76% 5.0 mph WNW8.0 kmh WNW 14.0 mph22.5 kmh 30.36 in1028.1 mb 0.00 in0.0 mm 0.00 in/hr0.0 mm/hr 0.00 in0.0 mm
04:40 PM 32.1°F0.1°C 25.1°F-3.8°C 75% 4.0 mph WNW6.4 kmh WNW 13.0 mph20.9 kmh 30.37 in1028.4 mb 0.00 in0.0 mm 0.00 in/hr0.0 mm/hr 0.00 in0.0 mm
04:50 PM 32.0°F0.0°C 25.3°F-3.7°C 76% 10.0 mph WSW16.1 kmh WSW 14.0 mph22.5 kmh 30.38 in1028.8 mb 0.00 in0.0 mm 0.00 in/hr0.0 mm/hr 0.00 in0.0 mm
05:00 PM 31.9°F-0.1°C 25.2°F-3.8°C 76% 12.0 mph W19.3 kmh W 14.0 mph22.5 kmh 30.38 in1028.8 mb 0.00 in0.0 mm 0.00 in/hr0.0 mm/hr 0.00 in0.0 mm
05:10 PM 31.9°F-0.1°C 25.5°F-3.6°C 77% 7.0 mph W11.3 kmh W 13.0 mph20.9 kmh 30.38 in1028.8 mb 0.00 in0.0 mm 0.00 in/hr0.0 mm/hr 0.00 in0.0 mm
05:20 PM 31.8°F-0.1°C 25.1°F-3.8°C 76% 10.0 mph W16.1 kmh W 12.0 mph19.3 kmh 30.38 in1028.8 mb 0.00 in0.0 mm 0.00 in/hr0.0 mm/hr 0.00 in0.0 mm
05:30 PM 31.7°F-0.2°C 24.7°F-4.1°C 75% 7.0 mph W11.3 kmh W 14.0 mph22.5 kmh 30.39 in1029.1 mb 0.00 in0.0 mm 0.00 in/hr0.0 mm/hr 0.00 in0.0 mm
05:40 PM 31.7°F-0.2°C 24.1°F-4.4°C 73% 10.0 mph NW16.1 kmh NW 16.0 mph25.7 kmh 30.40 in1029.5 mb 0.00 in0.0 mm 0.00 in/hr0.0 mm/hr 0.00 in0.0 mm
05:50 PM 31.4°F-0.3°C 23.4°F-4.8°C 72% 6.0 mph NW9.7 kmh NW 12.0 mph19.3 kmh 30.40 in1029.5 mb 0.00 in0.0 mm 0.00 in/hr0.0 mm/hr 0.00 in0.0 mm
06:00 PM 31.3°F-0.4°C 23.0°F-5.0°C 71% 4.0 mph WSW6.4 kmh WSW 14.0 mph22.5 kmh 30.40 in1029.5 mb 0.00 in0.0 mm 0.00 in/hr0.0 mm/hr 0.00 in0.0 mm
06:10 PM 31.2°F-0.4°C 22.9°F-5.1°C 71% 10.0 mph NW16.1 kmh NW 14.0 mph22.5 kmh 30.40 in1029.5 mb 0.00 in0.0 mm 0.00 in/hr0.0 mm/hr 0.00 in0.0 mm
06:20 PM 31.0°F-0.6°C 22.7°F-5.2°C 71% 7.0 mph WNW11.3 kmh WNW 13.0 mph20.9 kmh 30.41 in1029.8 mb 0.00 in0.0 mm 0.00 in/hr0.0 mm/hr 0.00 in0.0 mm
06:30 PM 30.8°F-0.7°C 22.9°F-5.1°C 72% 3.0 mph WNW4.8 kmh WNW 15.0 mph24.1 kmh 30.42 in1030.1 mb 0.00 in0.0 mm 0.00 in/hr0.0 mm/hr 0.00 in0.0 mm
06:40 PM 30.5°F-0.8°C 22.9°F-5.1°C 73% 4.0 mph NW6.4 kmh NW 14.0 mph22.5 kmh 30.42 in1030.1 mb 0.00 in0.0 mm 0.00 in/hr0.0 mm/hr 0.00 in0.0 mm
06:50 PM 30.1°F-1.1°C 22.5°F-5.3°C 73% 4.0 mph W6.4 kmh W 14.0 mph22.5 kmh 30.42 in1030.1 mb 0.00 in0.0 mm 0.00 in/hr0.0 mm/hr 0.00 in0.0 mm
07:00 PM 29.8°F-1.2°C 22.5°F-5.3°C 74% 6.0 mph W9.7 kmh W 11.0 mph17.7 kmh 30.43 in1030.5 mb 0.00 in0.0 mm 0.00 in/hr0.0 mm/hr 0.00 in0.0 mm
07:10 PM 29.6°F-1.3°C 22.4°F-5.3°C 74% 5.0 mph W8.0 kmh W 16.0 mph25.7 kmh 30.43 in1030.5 mb 0.00 in0.0 mm 0.00 in/hr0.0 mm/hr 0.00 in0.0 mm
07:20 PM 29.5°F-1.4°C 22.3°F-5.4°C 74% 4.0 mph W6.4 kmh W 14.0 mph22.5 kmh 30.43 in1030.5 mb 0.00 in0.0 mm 0.00 in/hr0.0 mm/hr 0.00 in0.0 mm
07:30 PM 29.4°F-1.4°C 22.2°F-5.4°C 74% 10.0 mph NW16.1 kmh NW 11.0 mph17.7 kmh 30.43 in1030.5 mb 0.00 in0.0 mm 0.00 in/hr0.0 mm/hr 0.00 in0.0 mm
07:40 PM 29.2°F-1.6°C 22.3°F-5.4°C 75% 4.0 mph W6.4 kmh W 13.0 mph20.9 kmh 30.44 in1030.8 mb 0.00 in0.0 mm 0.00 in/hr0.0 mm/hr 0.00 in0.0 mm
07:50 PM 29.0°F-1.7°C 21.8°F-5.7°C 74% 2.0 mph WNW3.2 kmh WNW 14.0 mph22.5 kmh 30.44 in1030.8 mb 0.00 in0.0 mm 0.00 in/hr0.0 mm/hr 0.00 in0.0 mm
08:00 PM 28.8°F-1.8°C 21.6°F-5.8°C 74% 4.0 mph WNW6.4 kmh WNW 19.0 mph30.6 kmh 30.44 in1030.8 mb 0.00 in0.0 mm 0.00 in/hr0.0 mm/hr 0.00 in0.0 mm
08:10 PM 28.7°F-1.8°C 21.5°F-5.8°C 74% 1.0 mph WNW1.6 kmh WNW 10.0 mph16.1 kmh 30.44 in1030.8 mb 0.00 in0.0 mm 0.00 in/hr0.0 mm/hr 0.00 in0.0 mm
08:20 PM 28.7°F-1.8°C 21.8°F-5.7°C 75% 7.0 mph N11.3 kmh N 7.0 mph11.3 kmh 30.44 in1030.8 mb 0.00 in0.0 mm 0.00 in/hr0.0 mm/hr 0.00 in0.0 mm
08:30 PM 28.6°F-1.9°C 21.7°F-5.7°C 75% 2.0 mph WNW3.2 kmh WNW 6.0 mph9.7 kmh 30.44 in1030.8 mb 0.00 in0.0 mm 0.00 in/hr0.0 mm/hr 0.00 in0.0 mm
08:40 PM 28.5°F-1.9°C 21.9°F-5.6°C 76% 10.0 mph WSW16.1 kmh WSW 11.0 mph17.7 kmh 30.45 in1031.2 mb 0.00 in0.0 mm 0.00 in/hr0.0 mm/hr 0.00 in0.0 mm
08:50 PM 28.6°F-1.9°C 22.0°F-5.6°C 76% 2.0 mph WNW3.2 kmh WNW 12.0 mph19.3 kmh 30.45 in1031.2 mb 0.00 in0.0 mm 0.00 in/hr0.0 mm/hr 0.00 in0.0 mm
09:00 PM 28.5°F-1.9°C 21.9°F-5.6°C 76% 9.0 mph WNW14.5 kmh WNW 10.0 mph16.1 kmh 30.45 in1031.2 mb 0.00 in0.0 mm 0.00 in/hr0.0 mm/hr 0.00 in0.0 mm
09:10 PM 28.5°F-1.9°C 21.6°F-5.8°C 75% 3.0 mph W4.8 kmh W 6.0 mph9.7 kmh 30.45 in1031.2 mb 0.00 in0.0 mm 0.00 in/hr0.0 mm/hr 0.00 in0.0 mm
09:20 PM 28.5°F-1.9°C 21.3°F-5.9°C 74% 5.0 mph W8.0 kmh W 12.0 mph19.3 kmh 30.45 in1031.2 mb 0.00 in0.0 mm 0.00 in/hr0.0 mm/hr 0.00 in0.0 mm
09:30 PM 28.4°F-2.0°C 21.2°F-6.0°C 74% 7.0 mph W11.3 kmh W 14.0 mph22.5 kmh 30.44 in1030.8 mb 0.00 in0.0 mm 0.00 in/hr0.0 mm/hr 0.00 in0.0 mm
09:40 PM 28.4°F-2.0°C 21.2°F-6.0°C 74% 6.0 mph WSW9.7 kmh WSW 13.0 mph20.9 kmh 30.45 in1031.2 mb 0.00 in0.0 mm 0.00 in/hr0.0 mm/hr 0.00 in0.0 mm
09:50 PM 28.4°F-2.0°C 21.2°F-6.0°C 74% 4.0 mph W6.4 kmh W 15.0 mph24.1 kmh 30.45 in1031.2 mb 0.00 in0.0 mm 0.00 in/hr0.0 mm/hr 0.00 in0.0 mm
10:00 PM 28.3°F-2.1°C 21.1°F-6.1°C 74% 3.0 mph WNW4.8 kmh WNW 14.0 mph22.5 kmh 30.45 in1031.2 mb 0.00 in0.0 mm 0.00 in/hr0.0 mm/hr 0.00 in0.0 mm
10:10 PM 28.2°F-2.1°C 20.7°F-6.3°C 73% 9.0 mph WSW14.5 kmh WSW 13.0 mph20.9 kmh 30.45 in1031.2 mb 0.00 in0.0 mm 0.00 in/hr0.0 mm/hr 0.00 in0.0 mm
10:20 PM 28.3°F-2.1°C 20.8°F-6.2°C 73% 7.0 mph WSW11.3 kmh WSW 13.0 mph20.9 kmh 30.45 in1031.2 mb 0.00 in0.0 mm 0.00 in/hr0.0 mm/hr 0.00 in0.0 mm
10:30 PM 28.2°F-2.1°C 20.7°F-6.3°C 73% 7.0 mph W11.3 kmh W 11.0 mph17.7 kmh 30.45 in1031.2 mb 0.00 in0.0 mm 0.00 in/hr0.0 mm/hr 0.00 in0.0 mm
10:40 PM 28.2°F-2.1°C 20.7°F-6.3°C 73% 4.0 mph WNW6.4 kmh WNW 11.0 mph17.7 kmh 30.45 in1031.2 mb 0.00 in0.0 mm 0.00 in/hr0.0 mm/hr 0.00 in0.0 mm
10:50 PM 28.1°F-2.2°C 20.6°F-6.3°C 73% 2.0 mph W3.2 kmh W 10.0 mph16.1 kmh 30.45 in1031.2 mb 0.00 in0.0 mm 0.00 in/hr0.0 mm/hr 0.00 in0.0 mm
11:00 PM 28.1°F-2.2°C 20.9°F-6.2°C 74% 2.0 mph WNW3.2 kmh WNW 6.0 mph9.7 kmh 30.45 in1031.2 mb 0.00 in0.0 mm 0.00 in/hr0.0 mm/hr 0.00 in0.0 mm
11:10 PM 28.1°F-2.2°C 20.9°F-6.2°C 74% 3.0 mph NW4.8 kmh NW 4.0 mph6.4 kmh 30.45 in1031.2 mb 0.00 in0.0 mm 0.00 in/hr0.0 mm/hr 0.00 in0.0 mm
11:20 PM 27.9°F-2.3°C 20.4°F-6.4°C 73% 5.0 mph W8.0 kmh W 12.0 mph19.3 kmh 30.45 in1031.2 mb 0.00 in0.0 mm 0.00 in/hr0.0 mm/hr 0.00 in0.0 mm
11:30 PM 27.7°F-2.4°C 19.5°F-6.9°C 71% 2.0 mph WNW3.2 kmh WNW 12.0 mph19.3 kmh 30.45 in1031.2 mb 0.00 in0.0 mm 0.00 in/hr0.0 mm/hr 0.00 in0.0 mm
11:40 PM 27.6°F-2.4°C 18.8°F-7.3°C 69% 2.0 mph W3.2 kmh W 13.0 mph20.9 kmh 30.45 in1031.2 mb 0.00 in0.0 mm 0.00 in/hr0.0 mm/hr 0.00 in0.0 mm
11:50 PM 27.6°F-2.4°C 18.8°F-7.3°C 69% Calm Calm 7.0 mph11.3 kmh 30.45 in1031.2 mb 0.00 in0.0 mm 0.00 in/hr0.0 mm/hr 0.00 in0.0 mm